Time;durP1;ratioP1;P1;durP2;ratioP2;P2;SDS_P1;SDS_P2;PMS_P1;PMS_P2;Temp;Humidity;BMP_temperature;BMP_pressure;BME280_temperature;BME280_humidity;BME280_pressure;Samples;Min_cycle;Max_cycle;Signal;HPM_P1;HPM_P2
2023/11/20 00:00:53;;;;;;;24.77;4.18;;;13.50;99.90;;;;;;5082426;28;38693;-78
2023/11/20 00:03:20;;;;;;;20.25;4.00;;;13.50;99.90;;;;;;5084553;27;37102;-78
2023/11/20 00:05:46;;;;;;;24.85;4.35;;;13.50;99.90;;;;;;5084572;28;36542;-77
2023/11/20 00:08:12;;;;;;;24.25;4.03;;;13.50;99.90;;;;;;5081631;28;37864;-77
2023/11/20 00:10:38;;;;;;;21.08;4.20;;;13.50;99.90;;;;;;5092525;28;37511;-77
2023/11/20 00:13:08;;;;;;;22.33;4.05;;;13.50;99.90;;;;;;5089724;28;37236;-78
2023/11/20 00:15:36;;;;;;;25.98;4.53;;;13.50;99.90;;;;;;5082108;28;37642;-78
2023/11/20 00:18:05;;;;;;;17.23;3.45;;;13.50;99.90;;;;;;5084737;28;36960;-78
2023/11/20 00:20:31;;;;;;;20.13;3.70;;;13.50;99.90;;;;;;5085989;28;38614;-77
2023/11/20 00:22:57;;;;;;;25.00;3.85;;;13.50;99.90;;;;;;5087743;27;38368;-77
2023/11/20 00:25:23;;;;;;;20.92;3.95;;;13.50;99.90;;;;;;5082786;28;37803;-77
2023/11/20 00:27:50;;;;;;;21.75;4.63;;;13.50;99.90;;;;;;5083121;28;36085;-79
2023/11/20 00:30:16;;;;;;;22.90;3.85;;;13.40;99.90;;;;;;5085558;27;37604;-77
2023/11/20 00:32:42;;;;;;;30.33;4.90;;;13.40;99.90;;;;;;5082710;28;37904;-78
2023/11/20 00:35:10;;;;;;;34.63;4.63;;;13.40;99.90;;;;;;5082438;28;36660;-78
2023/11/20 00:37:36;;;;;;;26.80;4.50;;;13.40;99.90;;;;;;5084467;28;36297;-77
2023/11/20 00:40:05;;;;;;;25.70;4.45;;;13.40;99.90;;;;;;5087021;28;37780;-77
2023/11/20 00:42:31;;;;;;;27.77;4.13;;;13.30;99.90;;;;;;5080682;27;48654;-77
2023/11/20 00:44:57;;;;;;;19.98;4.07;;;13.40;99.90;;;;;;5087083;28;36779;-77
2023/11/20 00:47:24;;;;;;;19.02;3.58;;;13.40;99.90;;;;;;5080840;27;36182;-77
2023/11/20 00:49:50;;;;;;;22.75;3.55;;;13.40;99.90;;;;;;5085472;27;38981;-77
2023/11/20 00:52:16;;;;;;;24.60;4.03;;;13.40;99.90;;;;;;5082648;28;37249;-76
2023/11/20 00:54:42;;;;;;;23.00;4.78;;;13.40;99.90;;;;;;5082862;28;37073;-77
2023/11/20 00:57:08;;;;;;;24.30;4.35;;;13.40;99.90;;;;;;5084768;28;36323;-78
2023/11/20 00:59:34;;;;;;;21.02;3.47;;;13.40;99.90;;;;;;5086981;28;38688;-77
2023/11/20 01:02:00;;;;;;;28.67;4.20;;;13.40;99.90;;;;;;5085969;28;38604;-78
2023/11/20 01:04:26;;;;;;;21.38;3.38;;;13.40;99.90;;;;;;5087931;28;37619;-77
2023/11/20 01:06:52;;;;;;;19.75;3.65;;;13.30;99.90;;;;;;5086729;28;37217;-77
2023/11/20 01:09:19;;;;;;;23.02;4.60;;;13.30;99.90;;;;;;5086474;28;39598;-77
2023/11/20 01:11:46;;;;;;;20.98;3.53;;;13.30;99.90;;;;;;5085639;28;38552;-77
2023/11/20 01:14:12;;;;;;;19.85;4.10;;;13.30;99.90;;;;;;5082395;28;37886;-77
2023/11/20 01:16:38;;;;;;;28.77;4.22;;;13.30;99.90;;;;;;5084977;28;35941;-78
2023/11/20 01:19:04;;;;;;;28.88;4.95;;;13.30;99.90;;;;;;5079378;28;38991;-77
2023/11/20 01:21:30;;;;;;;23.38;3.65;;;13.30;99.90;;;;;;5082561;28;38442;-77
2023/11/20 01:23:56;;;;;;;22.27;3.40;;;13.30;99.90;;;;;;5081299;28;37531;-77
2023/11/20 01:26:23;;;;;;;15.27;3.83;;;13.40;99.90;;;;;;5098838;27;36255;-78
2023/11/20 01:28:49;;;;;;;24.42;4.03;;;13.30;99.90;;;;;;5080307;28;39950;-77
2023/11/20 01:31:15;;;;;;;22.63;3.65;;;13.30;99.90;;;;;;5078786;28;39198;-77
2023/11/20 01:33:41;;;;;;;32.58;4.32;;;13.30;99.90;;;;;;5084178;28;37493;-77
2023/11/20 01:36:08;;;;;;;22.73;4.85;;;13.30;99.90;;;;;;5081902;28;37201;-77
2023/11/20 01:38:34;;;;;;;25.17;3.85;;;13.30;99.90;;;;;;5081631;28;37786;-77
2023/11/20 01:41:00;;;;;;;24.23;4.63;;;13.30;99.90;;;;;;5084869;28;38089;-78
2023/11/20 01:43:26;;;;;;;20.38;4.65;;;13.30;99.90;;;;;;5083458;28;36687;-77
2023/11/20 01:45:59;;;;;;;30.30;4.25;;;13.20;99.90;;;;;;5084702;27;37260;-76
2023/11/20 01:48:25;;;;;;;;;;;13.20;99.90;;;;;;5079541;28;37743;-78
2023/11/20 01:50:51;;;;;;;30.63;5.13;;;13.20;99.90;;;;;;5079420;28;37978;-77
2023/11/20 01:53:17;;;;;;;20.40;4.22;;;13.10;99.90;;;;;;5082715;28;36795;-77
2023/11/20 01:55:44;;;;;;;27.65;4.13;;;13.10;99.90;;;;;;5084136;28;37687;-77
2023/11/20 01:58:10;;;;;;;24.83;3.85;;;13.00;99.90;;;;;;5081749;28;37594;-77
2023/11/20 02:03:12;;;;;;;19.88;3.58;;;13.10;99.90;;;;;;5323730;22;20057;-79
2023/11/20 02:05:38;;;;;;;20.23;3.15;;;13.00;99.90;;;;;;5068928;28;38470;-79
2023/11/20 02:08:04;;;;;;;18.52;4.00;;;13.10;99.90;;;;;;5064639;28;38681;-78
2023/11/20 02:10:32;;;;;;;27.48;4.43;;;13.10;99.90;;;;;;5071403;28;38379;-79
2023/11/20 02:12:59;;;;;;;23.75;4.63;;;13.10;99.90;;;;;;5062519;28;37568;-78
2023/11/20 02:15:25;;;;;;;23.55;3.88;;;13.10;99.90;;;;;;5070568;28;37565;-79
2023/11/20 02:17:51;;;;;;;21.00;3.78;;;13.10;99.90;;;;;;5070205;28;38824;-79
2023/11/20 02:20:17;;;;;;;27.63;4.32;;;13.10;99.90;;;;;;5076803;28;38514;-78
2023/11/20 02:22:44;;;;;;;33.17;4.45;;;13.00;99.90;;;;;;5073869;28;36506;-78
2023/11/20 02:25:10;;;;;;;22.00;3.83;;;13.00;99.90;;;;;;5072369;28;38144;-79
2023/11/20 02:27:52;;;;;;;32.72;5.28;;;13.00;99.90;;;;;;5070169;28;39174;-79
2023/11/20 02:30:19;;;;;;;27.42;5.22;;;13.00;99.90;;;;;;5090410;28;37215;-78
2023/11/20 02:32:45;;;;;;;24.73;4.60;;;13.00;99.90;;;;;;5066837;28;39232;-79
2023/11/20 02:35:17;;;;;;;32.17;4.53;;;13.00;99.90;;;;;;5071233;28;36399;-79
2023/11/20 02:37:44;;;;;;;27.50;4.25;;;13.00;99.90;;;;;;5067694;28;37816;-78
2023/11/20 02:40:10;;;;;;;23.52;4.25;;;12.90;99.90;;;;;;5075832;28;38725;-79
2023/11/20 02:42:37;;;;;;;24.40;4.88;;;12.90;99.90;;;;;;5077451;28;38214;-79
2023/11/20 02:45:03;;;;;;;27.95;4.85;;;12.90;99.90;;;;;;5075507;28;36886;-79
2023/11/20 02:47:29;;;;;;;25.27;4.18;;;12.80;99.90;;;;;;5077048;28;37688;-79
2023/11/20 02:49:55;;;;;;;29.92;5.13;;;12.80;99.90;;;;;;5073777;28;38057;-78
2023/11/20 02:52:21;;;;;;;30.77;4.15;;;12.90;99.90;;;;;;5079341;28;37643;-79
2023/11/20 02:54:48;;;;;;;32.25;4.82;;;12.90;99.90;;;;;;5085659;28;36463;-78
2023/11/20 02:57:14;;;;;;;31.80;4.50;;;12.90;99.90;;;;;;5067870;28;37486;-78
2023/11/20 02:59:41;;;;;;;21.10;3.88;;;12.90;99.90;;;;;;5070503;28;39973;-79
2023/11/20 03:02:07;;;;;;;22.73;3.95;;;12.90;99.90;;;;;;5070079;28;37876;-79
2023/11/20 03:04:33;;;;;;;23.23;4.25;;;12.90;99.90;;;;;;5070159;28;36288;-79
2023/11/20 03:07:00;;;;;;;34.80;5.15;;;12.90;99.90;;;;;;5077346;28;40244;-79
2023/11/20 03:09:26;;;;;;;27.05;3.92;;;12.90;99.90;;;;;;5075964;28;49057;-79
2023/11/20 03:11:52;;;;;;;25.27;4.47;;;12.90;99.90;;;;;;5073618;28;36847;-79
2023/11/20 03:14:18;;;;;;;27.27;5.28;;;12.90;99.90;;;;;;5072102;28;37317;-77
2023/11/20 03:16:44;;;;;;;28.35;4.13;;;12.90;99.90;;;;;;5067185;28;39845;-78
2023/11/20 03:19:14;;;;;;;26.63;4.65;;;12.90;99.90;;;;;;5070020;28;37131;-78
2023/11/20 03:21:40;;;;;;;33.15;4.82;;;12.80;99.90;;;;;;5058832;28;39197;-78
2023/11/20 03:24:07;;;;;;;26.92;4.18;;;12.80;99.90;;;;;;5067192;28;36675;-78
2023/11/20 03:26:33;;;;;;;27.98;4.32;;;12.80;99.90;;;;;;5089113;28;38941;-78
2023/11/20 03:29:00;;;;;;;30.20;4.55;;;12.80;99.90;;;;;;5071494;28;39274;-79
2023/11/20 03:31:38;;;;;;;31.13;4.72;;;12.80;99.90;;;;;;5068894;28;36401;-79
2023/11/20 03:34:05;;;;;;;23.05;4.28;;;12.80;99.90;;;;;;5065913;28;37259;-79
2023/11/20 03:36:33;;;;;;;30.05;4.35;;;12.80;99.90;;;;;;5070656;28;39045;-79
2023/11/20 03:39:00;;;;;;;30.35;4.85;;;12.80;99.90;;;;;;5063298;28;37573;-79
2023/11/20 03:41:27;;;;;;;25.92;4.75;;;12.80;99.90;;;;;;5075302;28;38225;-79
2023/11/20 03:43:53;;;;;;;23.80;5.47;;;12.70;99.90;;;;;;5073216;28;38502;-79
2023/11/20 03:46:19;;;;;;;22.05;4.53;;;12.70;99.90;;;;;;5078625;28;38545;-80
2023/11/20 03:48:46;;;;;;;25.40;4.10;;;12.70;99.90;;;;;;5072016;28;37464;-79
2023/11/20 03:51:16;;;;;;;28.95;4.47;;;12.70;99.90;;;;;;5076101;28;36772;-79
2023/11/20 03:53:42;;;;;;;25.42;4.53;;;12.70;99.90;;;;;;5076706;28;38045;-80
2023/11/20 03:56:09;;;;;;;21.35;3.55;;;12.70;99.90;;;;;;5080471;28;37524;-79
2023/11/20 03:58:35;;;;;;;27.52;5.13;;;12.70;99.90;;;;;;5072024;28;38336;-79
2023/11/20 04:01:02;;;;;;;26.98;4.55;;;12.70;99.90;;;;;;5073371;28;37235;-79
2023/11/20 04:03:28;;;;;;;36.08;4.80;;;12.70;99.90;;;;;;5068180;28;35825;-79
2023/11/20 04:05:54;;;;;;;33.38;4.90;;;12.70;99.90;;;;;;5069754;28;38737;-79
2023/11/20 04:08:21;;;;;;;29.77;4.55;;;12.70;99.90;;;;;;5071117;28;37044;-79
2023/11/20 04:10:47;;;;;;;32.28;4.38;;;12.70;99.90;;;;;;5073207;28;36710;-77
2023/11/20 04:13:13;;;;;;;29.35;4.93;;;12.70;99.90;;;;;;5069918;28;37092;-79
2023/11/20 04:15:39;;;;;;;28.77;4.45;;;12.70;99.90;;;;;;5072243;28;38701;-78
2023/11/20 04:18:05;;;;;;;29.27;4.40;;;12.70;99.90;;;;;;5072982;28;40027;-78
2023/11/20 04:20:31;;;;;;;30.13;4.55;;;12.70;99.90;;;;;;5069997;28;37452;-77
2023/11/20 04:22:58;;;;;;;21.38;4.18;;;12.70;99.90;;;;;;5084596;28;36076;-78
2023/11/20 04:25:24;;;;;;;29.40;4.63;;;12.60;99.90;;;;;;5067813;28;39177;-78
2023/11/20 04:27:52;;;;;;;21.58;4.55;;;12.60;99.90;;;;;;5071139;28;37036;-78
2023/11/20 04:30:20;;;;;;;31.48;4.30;;;12.50;99.90;;;;;;5072731;28;36497;-78
2023/11/20 04:32:46;;;;;;;31.85;5.18;;;12.50;99.90;;;;;;5086083;28;36148;-78
2023/11/20 04:35:12;;;;;;;29.17;4.57;;;12.40;99.90;;;;;;5069236;28;37876;-78
2023/11/20 04:37:38;;;;;;;24.52;4.72;;;12.30;99.90;;;;;;5073143;28;38824;-78
2023/11/20 04:40:05;;;;;;;26.27;4.32;;;12.30;99.90;;;;;;5076177;28;37653;-78
2023/11/20 04:42:31;;;;;;;26.00;4.30;;;12.20;99.90;;;;;;5063634;28;47331;-79
2023/11/20 04:44:57;;;;;;;28.45;4.63;;;12.20;99.90;;;;;;5081736;28;38660;-79
2023/11/20 04:47:23;;;;;;;24.20;4.35;;;12.20;99.90;;;;;;5061860;28;38052;-79
2023/11/20 04:49:50;;;;;;;37.28;4.97;;;12.10;99.90;;;;;;5074730;28;37792;-78
2023/11/20 04:52:17;;;;;;;23.33;4.07;;;12.00;99.90;;;;;;5069239;28;35917;-78
2023/11/20 04:54:43;;;;;;;28.35;3.90;;;12.00;99.90;;;;;;5081222;28;37225;-78
2023/11/20 04:57:12;;;;;;;25.52;4.28;;;12.00;99.90;;;;;;5075124;28;37457;-78
2023/11/20 04:59:38;;;;;;;24.05;3.60;;;11.90;99.90;;;;;;5073886;28;37365;-78
2023/11/20 05:02:04;;;;;;;30.33;5.03;;;11.90;99.90;;;;;;5066584;28;37253;-78
2023/11/20 05:04:30;;;;;;;29.75;4.43;;;11.90;99.90;;;;;;5074507;28;38006;-78
2023/11/20 05:06:56;;;;;;;31.27;4.57;;;11.90;99.90;;;;;;5075059;28;38068;-79
2023/11/20 05:09:23;;;;;;;22.90;4.05;;;11.90;99.90;;;;;;5071688;28;37862;-78
2023/11/20 05:11:50;;;;;;;27.70;4.28;;;12.00;99.90;;;;;;5068542;28;36146;-79
2023/11/20 05:14:17;;;;;;;28.77;4.88;;;11.90;99.90;;;;;;5085268;28;38500;-78
2023/11/20 05:16:43;;;;;;;24.83;4.50;;;11.90;99.90;;;;;;5073128;28;38152;-79
2023/11/20 05:19:09;;;;;;;25.55;3.83;;;11.90;99.90;;;;;;5072286;28;37837;-79
2023/11/20 05:21:35;;;;;;;28.13;4.30;;;11.90;99.90;;;;;;5071016;28;36766;-79
2023/11/20 05:24:02;;;;;;;26.70;4.07;;;11.90;99.90;;;;;;5075749;28;38546;-79
2023/11/20 05:26:28;;;;;;;25.23;3.20;;;11.90;99.90;;;;;;5075095;28;38878;-78
2023/11/20 05:28:54;;;;;;;27.98;4.43;;;11.90;99.90;;;;;;5083323;28;38404;-78
2023/11/20 05:31:21;;;;;;;26.45;4.68;;;11.80;99.90;;;;;;5070147;28;34762;-78
2023/11/20 05:33:48;;;;;;;23.88;4.32;;;11.70;99.90;;;;;;5068886;28;37966;-78
2023/11/20 05:36:14;;;;;;;27.92;4.05;;;11.70;99.90;;;;;;5068865;28;38189;-77
2023/11/20 05:38:40;;;;;;;32.13;5.13;;;11.60;99.90;;;;;;5069271;28;37116;-78
2023/11/20 05:41:09;;;;;;;32.42;6.75;;;11.60;99.90;;;;;;5065647;28;35996;-78
2023/11/20 05:43:36;;;;;;;42.88;6.28;;;11.50;99.90;;;;;;5067107;28;37716;-78
2023/11/20 05:46:03;;;;;;;33.75;4.65;;;11.50;99.90;;;;;;5067429;28;38483;-78
2023/11/20 05:48:30;;;;;;;29.08;4.15;;;11.60;99.90;;;;;;5068534;28;37863;-78
2023/11/20 05:50:56;;;;;;;29.77;4.47;;;11.50;99.90;;;;;;5070544;28;37580;-78
2023/11/20 05:53:22;;;;;;;34.38;5.53;;;11.50;99.90;;;;;;5066734;28;37915;-78
2023/11/20 05:55:48;;;;;;;33.05;6.00;;;11.50;99.90;;;;;;5067964;28;38041;-77
2023/11/20 05:58:15;;;;;;;30.23;4.15;;;11.50;99.90;;;;;;5066864;28;39075;-78
2023/11/20 06:00:41;;;;;;;27.77;4.70;;;11.50;99.90;;;;;;5066752;28;35760;-79
2023/11/20 06:03:07;;;;;;;34.40;4.68;;;11.50;99.90;;;;;;5065099;28;38953;-78
2023/11/20 06:05:34;;;;;;;35.10;4.90;;;11.50;99.90;;;;;;5068131;28;38141;-78
2023/11/20 06:08:00;;;;;;;34.97;5.35;;;11.60;99.90;;;;;;5064073;28;38655;-78
2023/11/20 06:10:27;;;;;;;29.27;4.55;;;11.60;99.90;;;;;;5062893;28;36280;-78
2023/11/20 06:12:53;;;;;;;29.75;4.35;;;11.50;99.90;;;;;;5067893;28;38551;-78
2023/11/20 06:15:19;;;;;;;31.30;5.10;;;11.50;99.90;;;;;;5067314;28;37074;-78
2023/11/20 06:17:45;;;;;;;28.13;4.20;;;11.50;99.90;;;;;;5065844;28;38596;-78
2023/11/20 06:20:12;;;;;;;27.52;4.30;;;11.50;99.90;;;;;;5069191;28;37100;-78
2023/11/20 06:22:41;;;;;;;42.10;5.15;;;11.40;99.90;;;;;;5076359;28;37463;-78
2023/11/20 06:25:08;;;;;;;25.98;4.30;;;11.40;99.90;;;;;;5070522;28;37281;-77
2023/11/20 06:27:34;;;;;;;37.63;4.07;;;11.40;99.90;;;;;;5075209;28;38753;-77
2023/11/20 06:30:00;;;;;;;32.10;4.82;;;11.30;99.90;;;;;;5073852;28;38136;-77
2023/11/20 06:32:26;;;;;;;39.33;5.70;;;11.30;99.90;;;;;;5073374;28;37821;-78
2023/11/20 06:34:52;;;;;;;30.27;4.80;;;11.30;99.90;;;;;;5071680;28;38748;-80
2023/11/20 06:37:18;;;;;;;30.00;5.55;;;11.20;99.90;;;;;;5073075;28;37717;-76
2023/11/20 06:39:44;;;;;;;26.13;4.60;;;11.20;99.90;;;;;;5069807;28;37116;-77
2023/11/20 06:42:11;;;;;;;38.43;4.90;;;11.10;99.90;;;;;;5070584;28;40659;-76
2023/11/20 06:44:40;;;;;;;30.47;5.47;;;11.10;99.90;;;;;;5070635;28;38663;-78
2023/11/20 06:47:07;;;;;;;32.87;5.23;;;11.00;99.90;;;;;;5067952;28;36323;-77
2023/11/20 06:49:36;;;;;;;30.17;4.47;;;11.00;99.90;;;;;;5071536;28;35835;-78
2023/11/20 06:52:03;;;;;;;30.30;5.90;;;11.00;99.90;;;;;;5066596;28;36598;-78
2023/11/20 06:54:29;;;;;;;31.07;4.97;;;10.90;99.90;;;;;;5065657;28;38804;-78
2023/11/20 06:56:55;;;;;;;34.53;5.10;;;10.90;99.90;;;;;;5070139;28;39345;-78
2023/11/20 06:59:22;;;;;;;34.23;5.20;;;10.90;99.90;;;;;;5069667;28;35965;-78
2023/11/20 07:01:48;;;;;;;30.83;4.80;;;10.90;99.90;;;;;;5075609;28;40032;-78
2023/11/20 07:04:14;;;;;;;28.83;4.00;;;10.90;99.90;;;;;;5074385;28;37273;-78
2023/11/20 07:06:43;;;;;;;35.95;5.03;;;11.00;99.90;;;;;;5071350;28;38028;-77
2023/11/20 07:09:14;;;;;;;30.07;4.50;;;11.00;99.90;;;;;;5066614;28;36503;-78
2023/11/20 07:11:43;;;;;;;36.17;5.20;;;11.10;99.90;;;;;;5070770;28;37897;-77
2023/11/20 07:14:11;;;;;;;33.23;5.37;;;11.10;99.90;;;;;;5070810;28;39618;-77
2023/11/20 07:16:38;;;;;;;27.60;5.17;;;11.10;99.90;;;;;;5073033;28;37905;-77
2023/11/20 07:19:05;;;;;;;36.80;4.60;;;11.10;99.90;;;;;;5073855;28;36817;-77
2023/11/20 07:21:31;;;;;;;33.73;4.70;;;11.10;99.90;;;;;;5071854;28;39417;-77
2023/11/20 07:23:57;;;;;;;30.93;5.17;;;11.00;99.90;;;;;;5071122;28;37098;-77
2023/11/20 07:26:25;;;;;;;33.93;4.87;;;11.00;99.90;;;;;;5070431;28;38287;-77
2023/11/20 07:28:52;;;;;;;31.70;6.23;;;11.00;99.90;;;;;;5069593;28;37214;-77
2023/11/20 07:31:28;;;;;;;34.00;4.83;;;11.00;99.90;;;;;;5067649;28;38515;-77
2023/11/20 07:33:55;;;;;;;30.67;4.67;;;10.90;99.90;;;;;;5064766;28;38173;-77
2023/11/20 07:36:21;;;;;;;28.53;4.97;;;10.90;99.90;;;;;;5068172;28;37553;-78
2023/11/20 07:38:48;;;;;;;32.33;5.23;;;10.80;99.90;;;;;;5068999;28;36105;-78
2023/11/20 07:41:14;;;;;;;40.13;5.03;;;10.80;99.90;;;;;;5070707;28;36946;-77
2023/11/20 07:43:40;;;;;;;31.67;5.77;;;10.80;99.90;;;;;;5069357;28;38335;-78
2023/11/20 07:46:07;;;;;;;36.90;5.80;;;10.80;99.90;;;;;;5066953;28;36213;-78
2023/11/20 07:48:34;;;;;;;35.23;6.17;;;10.80;99.90;;;;;;5088620;28;35880;-77
2023/11/20 07:51:01;;;;;;;32.37;4.53;;;10.80;99.90;;;;;;5072028;28;37875;-78
2023/11/20 07:53:32;;;;;;;27.97;4.90;;;10.80;99.90;;;;;;5064118;28;47517;-78
2023/11/20 07:55:59;;;;;;;26.05;5.20;;;10.80;99.90;;;;;;5062470;28;36774;-78
2023/11/20 07:58:28;;;;;;;30.40;4.60;;;10.80;99.90;;;;;;5067718;28;38027;-78
2023/11/20 08:00:54;;;;;;;35.20;5.30;;;10.80;99.90;;;;;;5074429;28;38059;-78
2023/11/20 08:03:20;;;;;;;42.80;5.73;;;10.70;99.90;;;;;;5083775;28;37399;-77
2023/11/20 08:05:46;;;;;;;23.65;4.30;;;10.70;99.90;;;;;;5077596;28;38567;-77
2023/11/20 08:08:13;;;;;;;31.00;4.95;;;10.80;99.90;;;;;;5073644;28;35954;-77
2023/11/20 08:10:40;;;;;;;31.60;4.33;;;10.80;99.90;;;;;;5075395;28;37633;-77
2023/11/20 08:13:07;;;;;;;30.57;4.87;;;10.80;99.90;;;;;;5072828;28;38652;-78
2023/11/20 08:15:33;;;;;;;30.63;5.78;;;10.80;99.90;;;;;;5071499;28;38196;-77
2023/11/20 08:17:59;;;;;;;33.15;4.55;;;10.80;99.90;;;;;;5081235;28;35816;-77
2023/11/20 08:20:25;;;;;;;46.17;6.53;;;10.80;99.90;;;;;;5075064;28;37692;-78
2023/11/20 08:22:51;;;;;;;34.27;4.03;;;10.80;99.90;;;;;;5070507;28;39333;-78
2023/11/20 08:25:17;;;;;;;28.25;4.18;;;10.80;99.90;;;;;;5067261;28;37559;-77
2023/11/20 08:27:43;;;;;;;24.13;4.30;;;10.80;99.90;;;;;;5067030;28;36039;-78
2023/11/20 08:30:10;;;;;;;33.73;4.63;;;10.80;99.90;;;;;;5068030;28;37384;-77
2023/11/20 08:32:36;;;;;;;40.50;5.93;;;10.80;99.90;;;;;;5072449;28;47068;-77
2023/11/20 08:35:03;;;;;;;29.55;4.78;;;10.80;99.90;;;;;;5070714;28;38809;-79
2023/11/20 08:37:29;;;;;;;27.30;3.80;;;10.80;99.90;;;;;;5068985;28;38373;-78
2023/11/20 08:39:55;;;;;;;28.95;4.78;;;10.80;99.90;;;;;;5068392;28;38819;-76
2023/11/20 08:42:25;;;;;;;35.03;5.38;;;10.80;99.90;;;;;;5067348;28;37643;-78
2023/11/20 08:44:53;;;;;;;24.73;4.75;;;10.80;99.90;;;;;;5068763;28;38132;-79
2023/11/20 08:47:20;;;;;;;24.40;3.85;;;10.80;99.90;;;;;;5067682;28;37052;-78
2023/11/20 08:49:46;;;;;;;35.53;5.20;;;10.80;99.90;;;;;;5066842;28;39121;-78
2023/11/20 08:52:12;;;;;;;30.27;4.90;;;10.90;99.90;;;;;;5074693;28;38225;-79
2023/11/20 08:54:38;;;;;;;35.30;6.22;;;11.10;99.90;;;;;;5070671;28;37084;-79
2023/11/20 08:57:05;;;;;;;29.65;4.13;;;11.40;99.90;;;;;;5073483;28;36829;-78
2023/11/20 08:59:32;;;;;;;30.05;5.00;;;11.60;99.90;;;;;;5068884;28;37723;-78
2023/11/20 09:01:58;;;;;;;26.33;4.53;;;11.80;99.90;;;;;;5067831;28;38317;-79
2023/11/20 09:04:26;;;;;;;25.30;4.28;;;12.00;99.90;;;;;;5060573;28;36583;-79
2023/11/20 09:06:52;;;;;;;28.95;4.15;;;12.10;99.90;;;;;;5070102;28;37980;-78
2023/11/20 09:09:18;;;;;;;25.83;4.40;;;12.10;99.90;;;;;;5068606;28;37513;-79
2023/11/20 09:11:45;;;;;;;30.45;4.72;;;12.20;99.90;;;;;;5064205;28;38231;-78
2023/11/20 09:14:12;;;;;;;21.08;3.85;;;12.20;99.90;;;;;;5062093;28;38738;-78
2023/11/20 09:16:38;;;;;;;20.00;4.22;;;12.20;99.90;;;;;;5068147;28;36360;-78
2023/11/20 09:19:04;;;;;;;30.65;4.38;;;12.20;99.90;;;;;;5068911;28;38606;-78
2023/11/20 09:21:31;;;;;;;25.25;4.78;;;12.20;99.90;;;;;;5069129;28;38091;-78
2023/11/20 09:23:57;;;;;;;26.02;4.35;;;12.20;99.90;;;;;;5069985;28;37666;-79
2023/11/20 09:26:23;;;;;;;23.50;4.40;;;12.20;99.90;;;;;;5067833;28;35982;-78
2023/11/20 09:28:49;;;;;;;33.63;5.53;;;12.10;99.90;;;;;;5070046;28;37674;-78
2023/11/20 09:31:19;;;;;;;24.92;3.90;;;12.10;99.90;;;;;;5067568;28;38021;-78
2023/11/20 09:33:50;;;;;;;28.60;4.07;;;12.00;99.90;;;;;;5067729;28;36896;-77
2023/11/20 09:36:18;;;;;;;25.23;4.53;;;11.90;99.90;;;;;;5077515;28;36328;-78
2023/11/20 09:38:45;;;;;;;29.58;4.18;;;11.90;99.90;;;;;;5067286;28;38818;-79
2023/11/20 09:41:11;;;;;;;26.17;5.35;;;11.80;99.90;;;;;;5072292;28;36976;-78
2023/11/20 09:43:38;;;;;;;26.40;4.25;;;11.80;99.90;;;;;;5068885;28;38524;-77
2023/11/20 09:46:07;;;;;;;18.33;4.40;;;11.80;99.90;;;;;;5065779;28;36935;-77
2023/11/20 09:48:37;;;;;;;25.90;4.38;;;11.80;99.90;;;;;;5073284;28;39594;-78
2023/11/20 09:51:07;;;;;;;26.02;4.53;;;11.80;99.90;;;;;;5067137;28;37440;-76
2023/11/20 09:53:36;;;;;;;19.83;3.92;;;11.80;99.90;;;;;;5061618;28;36913;-75
2023/11/20 09:56:04;;;;;;;29.70;4.10;;;11.80;99.90;;;;;;5067233;28;36542;-77
2023/11/20 09:58:40;;;;;;;31.50;4.18;;;11.80;99.90;;;;;;5066858;28;38328;-78
2023/11/20 10:01:09;;;;;;;26.58;4.57;;;11.80;99.90;;;;;;5069310;28;37663;-78
2023/11/20 10:03:40;;;;;;;25.58;4.78;;;11.80;99.90;;;;;;5072499;28;37615;-78
2023/11/20 10:06:08;;;;;;;28.95;4.13;;;11.90;99.90;;;;;;5080027;28;37221;-78
2023/11/20 10:08:36;;;;;;;30.30;4.45;;;11.80;99.90;;;;;;5073355;28;37434;-79
2023/11/20 10:11:03;;;;;;;25.00;3.65;;;11.90;99.90;;;;;;5090666;28;37220;-78
2023/11/20 10:13:30;;;;;;;22.15;3.95;;;11.90;99.90;;;;;;5078190;28;38365;-78
2023/11/20 10:15:58;;;;;;;27.55;4.43;;;11.90;99.90;;;;;;5075220;28;36116;-78
2023/11/20 10:18:24;;;;;;;27.30;4.13;;;12.00;99.90;;;;;;5075140;28;38432;-78
2023/11/20 10:20:51;;;;;;;30.05;5.07;;;12.00;99.90;;;;;;5069102;28;37180;-78
2023/11/20 10:23:18;;;;;;;20.67;3.35;;;12.00;99.90;;;;;;5075803;28;37983;-77
2023/11/20 10:25:45;;;;;;;24.30;4.53;;;12.00;99.90;;;;;;5074909;28;37398;-78
2023/11/20 10:28:13;;;;;;;32.22;4.90;;;12.10;99.90;;;;;;5074273;28;38033;-79
2023/11/20 10:30:44;;;;;;;21.75;3.58;;;12.10;99.90;;;;;;5079027;28;37631;-79
2023/11/20 10:33:17;;;;;;;24.90;3.65;;;12.10;99.90;;;;;;5076256;28;37947;-79
2023/11/20 10:35:45;;;;;;;24.45;4.30;;;12.10;99.90;;;;;;5071998;28;37392;-79
2023/11/20 10:38:11;;;;;;;28.83;3.65;;;12.20;99.90;;;;;;5072692;28;38043;-79
2023/11/20 10:40:48;;;;;;;21.90;4.97;;;12.30;99.90;;;;;;5076918;28;37919;-79
2023/11/20 10:43:15;;;;;;;25.83;4.22;;;12.30;99.90;;;;;;5072383;28;37636;-80
2023/11/20 10:45:41;;;;;;;20.80;3.80;;;12.40;99.90;;;;;;5082103;28;36670;-79
2023/11/20 10:48:07;;;;;;;24.50;4.20;;;12.50;99.90;;;;;;5078415;28;38317;-79
2023/11/20 10:50:38;;;;;;;28.33;3.80;;;12.60;99.90;;;;;;5063659;28;38632;-79
2023/11/20 10:53:06;;;;;;;17.38;3.13;;;12.70;99.90;;;;;;5072770;28;38237;-79
2023/11/20 10:55:40;;;;;;;22.50;3.95;;;12.80;99.90;;;;;;5075288;28;36894;-79
2023/11/20 10:58:11;;;;;;;24.08;4.30;;;13.00;99.90;;;;;;5072968;28;38089;-79
2023/11/20 11:00:42;;;;;;;17.08;3.17;;;13.20;99.90;;;;;;5072392;28;38601;-79
2023/11/20 11:03:09;;;;;;;25.92;3.80;;;13.30;99.90;;;;;;5087568;28;37635;-78
2023/11/20 11:05:39;;;;;;;28.23;4.65;;;13.20;99.90;;;;;;5070037;28;36091;-77
2023/11/20 11:08:11;;;;;;;18.92;3.55;;;13.20;99.90;;;;;;5079055;28;37721;-77
2023/11/20 11:10:42;;;;;;;22.83;3.97;;;13.10;99.90;;;;;;5078515;28;39317;-78
2023/11/20 11:13:10;;;;;;;27.17;4.43;;;13.10;99.90;;;;;;5077275;28;38142;-79
2023/11/20 11:15:37;;;;;;;20.92;2.83;;;12.90;99.90;;;;;;5074903;28;36172;-79
2023/11/20 11:18:05;;;;;;;17.35;3.20;;;12.90;99.90;;;;;;5069694;28;39363;-79
2023/11/20 11:20:49;;;;;;;19.40;3.45;;;12.90;99.90;;;;;;5075683;28;38616;-79
2023/11/20 11:23:28;;;;;;;22.50;3.47;;;12.90;99.90;;;;;;5071760;28;37103;-79
2023/11/20 11:26:10;;;;;;;20.00;4.28;;;12.90;99.90;;;;;;5079091;28;39417;-78
2023/11/20 11:28:41;;;;;;;21.33;3.70;;;13.00;99.90;;;;;;5075412;28;47167;-78
2023/11/20 11:31:09;;;;;;;17.05;3.55;;;13.00;99.90;;;;;;5078890;28;37138;-78
2023/11/20 11:34:14;;;;;;;21.77;4.20;;;13.00;99.90;;;;;;5083873;28;36878;-78
2023/11/20 11:37:02;;;;;;;21.40;3.75;;;13.10;99.90;;;;;;5035030;28;46520;-78
2023/11/20 11:39:36;;;;;;;26.67;3.47;;;13.10;99.90;;;;;;5077083;28;47622;-79
2023/11/20 11:42:13;;;;;;;21.45;3.60;;;13.00;99.90;;;;;;5071240;28;38890;-79
2023/11/20 11:44:56;;;;;;;16.38;3.65;;;13.00;99.90;;;;;;5078350;28;46845;-78
2023/11/20 11:47:23;;;;;;;28.65;4.20;;;13.00;99.90;;;;;;5080007;28;37742;-78
2023/11/20 11:49:50;;;;;;;19.02;2.90;;;13.10;99.90;;;;;;5088723;28;37603;-79
2023/11/20 11:52:35;;;;;;;20.55;3.88;;;13.20;99.90;;;;;;5080312;28;38282;-79
2023/11/20 11:55:13;;;;;;;23.55;2.90;;;13.20;99.90;;;;;;5077987;28;38957;-79
2023/11/20 11:57:40;;;;;;;19.60;3.40;;;13.10;99.90;;;;;;5070566;28;49560;-79
2023/11/20 12:00:14;;;;;;;20.63;2.92;;;13.10;99.90;;;;;;5071697;28;38770;-80
2023/11/20 12:03:08;;;;;;;19.08;4.10;;;13.10;99.90;;;;;;5070768;28;37277;-79
2023/11/20 12:05:54;;;;;;;24.00;3.70;;;13.20;99.90;;;;;;5067890;28;47513;-80
2023/11/20 12:08:24;;;;;;;16.15;2.83;;;13.20;99.90;;;;;;5074426;28;38269;-79
2023/11/20 12:10:52;;;;;;;15.88;2.88;;;13.40;99.90;;;;;;5090090;28;37523;-79
2023/11/20 12:13:19;;;;;;;17.38;3.15;;;13.40;99.90;;;;;;5071095;28;38912;-80
2023/11/20 12:16:01;;;;;;;14.90;3.30;;;13.40;99.90;;;;;;5088259;22;38176;-77
2023/11/20 12:18:33;;;;;;;22.60;3.38;;;13.40;99.90;;;;;;5061480;28;36937;-77
2023/11/20 12:21:04;;;;;;;15.98;3.78;;;13.50;99.90;;;;;;5068063;28;37828;-77
2023/11/20 12:23:38;;;;;;;15.65;2.88;;;13.50;99.90;;;;;;5067924;28;48895;-77
2023/11/20 12:26:06;;;;;;;14.48;3.10;;;13.50;99.90;;;;;;5066605;28;37167;-77
2023/11/20 12:28:33;;;;;;;16.52;4.20;;;13.30;99.90;;;;;;5066724;28;37491;-77
2023/11/20 12:31:07;;;;;;;14.45;3.50;;;13.20;99.90;;;;;;5065532;28;37631;-77
2023/11/20 12:33:41;;;;;;;15.52;3.28;;;13.10;99.90;;;;;;5063036;28;47073;-77
2023/11/20 12:36:12;;;;;;;20.58;2.95;;;12.90;99.90;;;;;;5065923;28;37361;-77
2023/11/20 12:38:40;;;;;;;18.83;3.50;;;12.70;99.90;;;;;;5066434;28;36391;-77
2023/11/20 12:41:10;;;;;;;15.93;3.30;;;12.70;99.90;;;;;;5062283;28;40616;-78
2023/11/20 12:43:37;;;;;;;15.25;3.22;;;12.60;99.90;;;;;;5065018;28;38803;-77